Time;durP1;ratioP1;P1;durP2;ratioP2;P2;SDS_P1;SDS_P2;PMS_P1;PMS_P2;Temp;Humidity;BMP_temperature;BMP_pressure;BME280_temperature;BME280_humidity;BME280_pressure;Samples;Min_cycle;Max_cycle;Signal;HPM_P1;HPM_P2
2021/03/03 00:00:18;;;;;;;;;;;;;;;-0.61;100.00;97119.75;1039213;28;19913;-61
2021/03/03 00:00:48;;;;;;;;;;;;;;;-0.65;100.00;97124.41;1039492;28;19924;-61
2021/03/03 00:01:19;;;;;;;;;;;;;;;-0.71;100.00;97118.13;1040665;28;19917;-63
2021/03/03 00:01:49;;;;;;;;;;;;;;;-0.70;100.00;97121.53;1039934;28;19932;-60
2021/03/03 00:02:19;;;;;;;;;;;;;;;-0.67;100.00;97121.22;1041454;28;19915;-61
2021/03/03 00:02:49;;;;;;;;;;;;;;;-0.72;100.00;97121.66;1043850;28;19913;-61
2021/03/03 00:03:20;;;;;;;;;;;;;;;-0.75;100.00;97116.81;1043055;28;20437;-61
2021/03/03 00:03:50;;;;;;;;;;;;;;;-0.77;100.00;97117.94;1043506;28;19948;-61
2021/03/03 00:04:20;;;;;;;;;;;;;;;-0.81;100.00;97120.03;1039954;28;19912;-61
2021/03/03 00:04:51;;;;;;;;;;;;;;;-0.80;100.00;97116.50;1039733;28;19944;-62
2021/03/03 00:05:21;;;;;;;;;;;;;;;-0.79;100.00;97112.97;1040435;28;19933;-61
2021/03/03 00:05:51;;;;;;;;;;;;;;;-0.79;100.00;97117.31;1037570;28;19920;-61
2021/03/03 00:06:22;;;;;;;;;;;;;;;-0.81;100.00;97120.03;1035340;28;19921;-61
2021/03/03 00:06:52;;;;;;;;;;;;;;;-0.85;100.00;97116.16;1035817;28;19917;-61
2021/03/03 00:07:22;;;;;;;;;;;;;;;-0.89;100.00;97111.47;1041615;28;19917;-61
2021/03/03 00:07:52;;;;;;;;;;;;;;;-0.91;100.00;97114.19;1043551;28;19924;-62
2021/03/03 00:08:23;;;;;;;;;;;;;;;-0.92;100.00;97112.59;1041415;28;19913;-61
2021/03/03 00:08:53;;;;;;;;;;;;;;;-0.93;100.00;97111.00;1039805;28;19940;-60
2021/03/03 00:09:23;;;;;;;;;;;;;;;-0.90;100.00;97105.53;1039826;28;19920;-61
2021/03/03 00:09:54;;;;;;;;;;;;;;;-0.90;100.00;97115.03;1042919;28;19916;-61
2021/03/03 00:10:24;;;;;;;;;;;;;;;-0.86;100.00;97106.00;1042684;28;19928;-61
2021/03/03 00:10:55;;;;;;;;;;;;;;;-0.93;100.00;97105.84;1043969;28;19921;-62
2021/03/03 00:11:25;;;;;;;;;;;;;;;-0.95;100.00;97105.97;1039326;28;19960;-61
2021/03/03 00:11:55;;;;;;;;;;;;;;;-0.96;100.00;97108.72;1043572;28;19917;-61
2021/03/03 00:12:25;;;;;;;;;;;;;;;-0.96;100.00;97106.16;1043927;28;19926;-62
2021/03/03 00:12:56;;;;;;;;;;;;;;;-0.93;100.00;97098.09;1043293;28;19916;-61
2021/03/03 00:13:26;;;;;;;;;;;;;;;-0.97;100.00;97104.53;1043690;28;19917;-61
2021/03/03 00:13:56;;;;;;;;;;;;;;;-0.99;100.00;97107.25;1043021;28;19951;-61
2021/03/03 00:14:27;;;;;;;;;;;;;;;-1.00;100.00;97103.06;1039824;28;19920;-61
2021/03/03 00:14:57;;;;;;;;;;;;;;;-1.00;100.00;97097.13;1042620;28;20154;-61
2021/03/03 00:15:27;;;;;;;;;;;;;;;-1.03;100.00;97097.44;1044281;28;19996;-61
2021/03/03 00:15:57;;;;;;;;;;;;;;;-1.07;100.00;97101.28;1044036;28;19916;-60
2021/03/03 00:16:28;;;;;;;;;;;;;;;-1.09;100.00;97106.56;1042154;28;19990;-62
2021/03/03 00:16:58;;;;;;;;;;;;;;;-1.09;100.00;97095.47;1040359;28;19979;-61
2021/03/03 00:17:28;;;;;;;;;;;;;;;-1.12;100.00;97104.31;1043549;28;19936;-61
2021/03/03 00:17:59;;;;;;;;;;;;;;;-1.12;100.00;97095.78;1043837;28;19919;-61
2021/03/03 00:18:29;;;;;;;;;;;;;;;-1.12;100.00;97104.31;1044064;28;19924;-61
2021/03/03 00:18:59;;;;;;;;;;;;;;;-1.15;100.00;97102.03;1043351;28;19921;-61
2021/03/03 00:19:30;;;;;;;;;;;;;;;-1.17;100.00;97105.72;1039419;28;19923;-61
2021/03/03 00:20:00;;;;;;;;;;;;;;;-1.19;100.00;97108.47;1036755;28;20561;-62
2021/03/03 00:20:30;;;;;;;;;;;;;;;-1.19;100.00;97101.53;1035408;28;20139;-62
2021/03/03 00:21:01;;;;;;;;;;;;;;;-1.14;100.00;97110.56;1035254;28;19924;-62
2021/03/03 00:21:31;;;;;;;;;;;;;;;-1.10;100.00;97111.91;1040125;28;19952;-61
2021/03/03 00:22:02;;;;;;;;;;;;;;;-1.12;100.00;97106.09;1039318;28;19951;-62
2021/03/03 00:22:32;;;;;;;;;;;;;;;-1.06;100.00;97110.63;1042811;28;19931;-62
2021/03/03 00:23:02;;;;;;;;;;;;;;;-1.09;100.00;97108.34;1043780;28;19924;-62
2021/03/03 00:23:33;;;;;;;;;;;;;;;-1.11;100.00;97107.69;1043221;28;19909;-61
2021/03/03 00:24:03;;;;;;;;;;;;;;;-1.13;100.00;97109.63;1043478;28;19959;-61
2021/03/03 00:24:34;;;;;;;;;;;;;;;-1.12;100.00;97106.09;1040385;28;20027;-63
2021/03/03 00:25:04;;;;;;;;;;;;;;;-1.13;100.00;97107.06;1039931;28;19928;-62
2021/03/03 00:25:35;;;;;;;;;;;;;;;-1.16;100.00;97104.78;1039768;28;19913;-62
2021/03/03 00:26:05;;;;;;;;;;;;;;;-1.21;100.00;97111.22;1043661;28;20309;-62
2021/03/03 00:26:35;;;;;;;;;;;;;;;-1.23;100.00;97102.81;1043541;28;20430;-62
2021/03/03 00:27:06;;;;;;;;;;;;;;;-1.22;100.00;97107.00;1043110;28;19916;-61
2021/03/03 00:27:36;;;;;;;;;;;;;;;-1.23;100.00;97105.41;1042641;28;19909;-61
2021/03/03 00:28:06;;;;;;;;;;;;;;;-1.25;100.00;97107.31;1043725;28;19919;-61
2021/03/03 00:28:37;;;;;;;;;;;;;;;-1.21;100.00;97106.06;1043541;28;19923;-61
2021/03/03 00:29:07;;;;;;;;;;;;;;;-1.17;100.00;97108.28;1041895;28;19917;-62
2021/03/03 00:29:37;;;;;;;;;;;;;;;-1.21;100.00;97108.63;1039358;28;19913;-62
2021/03/03 00:30:08;;;;;;;;;;;;;;;-1.23;100.00;97105.41;1039658;28;20593;-62
2021/03/03 00:30:38;;;;;;;;;;;;;;;-1.20;100.00;97105.09;1039651;28;20007;-62
2021/03/03 00:31:08;;;;;;;;;;;;;;;-1.21;100.00;97100.91;1043786;28;19932;-62
2021/03/03 00:31:39;;;;;;;;;;;;;;;-1.22;100.00;97106.19;1038512;28;20586;-61
2021/03/03 00:32:09;;;;;;;;;;;;;;;-1.17;100.00;97103.16;1035555;28;19913;-62
2021/03/03 00:32:39;;;;;;;;;;;;;;;-1.15;100.00;97102.03;1039402;28;19920;-61
2021/03/03 00:33:10;;;;;;;;;;;;;;;-1.17;100.00;97103.16;1043722;28;20017;-61
2021/03/03 00:33:40;;;;;;;;;;;;;;;-1.21;100.00;97100.91;1043103;28;20289;-61
2021/03/03 00:34:10;;;;;;;;;;;;;;;-1.24;100.00;97102.97;1043611;28;19913;-62
2021/03/03 00:34:40;;;;;;;;;;;;;;;-1.22;100.00;97107.00;1039514;28;19919;-61
2021/03/03 00:35:11;;;;;;;;;;;;;;;-1.24;100.00;97108.94;1039312;28;19917;-61
2021/03/03 00:35:41;;;;;;;;;;;;;;;-1.26;100.00;97104.91;1035450;28;20419;-62
2021/03/03 00:36:12;;;;;;;;;;;;;;;-1.29;100.00;97116.31;1035169;28;19960;-62
2021/03/03 00:36:42;;;;;;;;;;;;;;;-1.31;100.00;97109.69;1031170;28;20020;-62
2021/03/03 00:37:12;;;;;;;;;;;;;;;-1.29;100.00;97116.31;1030922;28;20330;-61
2021/03/03 00:37:42;;;;;;;;;;;;;;;-1.26;100.00;97107.47;1037550;28;19925;-61
2021/03/03 00:38:13;;;;;;;;;;;;;;;-1.29;100.00;97110.34;1043562;28;19913;-62
2021/03/03 00:38:43;;;;;;;;;;;;;;;-1.29;100.00;97106.00;1043879;28;19924;-61
2021/03/03 00:39:13;;;;;;;;;;;;;;;-1.28;100.00;97112.75;1043829;28;19920;-61
2021/03/03 00:39:44;;;;;;;;;;;;;;;-1.26;100.00;97104.91;1040811;28;20349;-61
2021/03/03 00:40:14;;;;;;;;;;;;;;;-1.30;100.00;97109.56;1040606;28;19921;-61
2021/03/03 00:40:44;;;;;;;;;;;;;;;-1.31;100.00;97101.97;1043522;28;19926;-61
2021/03/03 00:41:15;;;;;;;;;;;;;;;-1.32;100.00;97110.66;1039310;28;19952;-62
2021/03/03 00:41:45;;;;;;;;;;;;;;;-1.32;100.00;97106.31;1039443;28;19963;-62
2021/03/03 00:42:15;;;;;;;;;;;;;;;-1.30;100.00;97106.97;1043142;28;19966;-61
2021/03/03 00:42:46;;;;;;;;;;;;;;;-1.32;100.00;97106.31;1041650;28;19923;-61
2021/03/03 00:43:16;;;;;;;;;;;;;;;-1.34;100.00;97102.28;1039893;28;19917;-61
2021/03/03 00:43:46;;;;;;;;;;;;;;;-1.36;100.00;97104.22;1039700;28;20063;-62
2021/03/03 00:44:16;;;;;;;;;;;;;;;-1.40;100.00;97100.34;1040115;28;19921;-61
2021/03/03 00:44:47;;;;;;;;;;;;;;;-1.43;100.00;97104.81;1044000;28;19963;-62
2021/03/03 00:45:17;;;;;;;;;;;;;;;-1.40;100.00;97105.47;1043387;28;19912;-61
2021/03/03 00:45:47;;;;;;;;;;;;;;;-1.40;100.00;97108.06;1039496;28;19920;-61
2021/03/03 00:46:18;;;;;;;;;;;;;;;-1.42;100.00;97105.63;1039201;28;19917;-61
2021/03/03 00:46:48;;;;;;;;;;;;;;;-1.42;100.00;97105.63;1039631;28;19905;-61
2021/03/03 00:47:18;;;;;;;;;;;;;;;-1.46;100.00;97106.91;1038772;28;19956;-61
2021/03/03 00:47:49;;;;;;;;;;;;;;;-1.48;100.00;97106.22;1041236;28;20313;-62
2021/03/03 00:48:19;;;;;;;;;;;;;;;-1.44;100.00;97102.41;1043885;28;19917;-61
2021/03/03 00:48:49;;;;;;;;;;;;;;;-1.46;100.00;97104.31;1043967;28;19959;-61
2021/03/03 00:49:20;;;;;;;;;;;;;;;-1.43;100.00;97098.88;1044052;28;19912;-61
2021/03/03 00:49:50;;;;;;;;;;;;;;;-1.43;100.00;97104.81;1043691;28;19947;-62
2021/03/03 00:50:20;;;;;;;;;;;;;;;-1.35;100.00;97100.66;1042640;28;19921;-61
2021/03/03 00:50:50;;;;;;;;;;;;;;;-1.42;100.00;97095.31;1039662;28;19923;-61
2021/03/03 00:51:21;;;;;;;;;;;;;;;-1.41;100.00;97096.94;1039571;28;19920;-61
2021/03/03 00:51:51;;;;;;;;;;;;;;;-1.40;100.00;97098.56;1041424;28;19920;-61
2021/03/03 00:52:21;;;;;;;;;;;;;;;-1.36;100.00;97094.72;1043359;28;19919;-60
2021/03/03 00:52:52;;;;;;;;;;;;;;;-1.38;100.00;97099.19;1043674;28;19927;-61
2021/03/03 00:53:22;;;;;;;;;;;;;;;-1.42;100.00;97096.13;1043446;28;19916;-61
2021/03/03 00:53:52;;;;;;;;;;;;;;;-1.42;100.00;97100.47;1041356;28;20402;-61
2021/03/03 00:54:23;;;;;;;;;;;;;;;-1.40;100.00;97095.19;1043990;28;19920;-62
2021/03/03 00:54:53;;;;;;;;;;;;;;;-1.38;100.00;97096.63;1043672;28;19948;-62
2021/03/03 00:55:23;;;;;;;;;;;;;;;-1.36;100.00;97097.28;1040404;28;19921;-61
2021/03/03 00:55:54;;;;;;;;;;;;;;;-1.38;100.00;97091.47;1043307;28;19927;-61
2021/03/03 00:56:24;;;;;;;;;;;;;;;-1.38;100.00;97096.63;1043920;28;19920;-61
2021/03/03 00:56:54;;;;;;;;;;;;;;;-1.43;100.00;97089.38;1043409;28;19923;-62
2021/03/03 00:57:24;;;;;;;;;;;;;;;-1.42;100.00;97095.31;1043144;28;19931;-62
2021/03/03 00:57:55;;;;;;;;;;;;;;;-1.47;100.00;97095.78;1042176;28;19948;-62
2021/03/03 00:58:25;;;;;;;;;;;;;;;-1.45;100.00;97082.75;1039404;28;19952;-61
2021/03/03 00:58:56;;;;;;;;;;;;;;;-1.45;100.00;97093.06;1043391;28;19916;-62
2021/03/03 00:59:26;;;;;;;;;;;;;;;-1.47;100.00;97087.28;1035500;28;19910;-61
2021/03/03 00:59:56;;;;;;;;;;;;;;;-1.46;100.00;97091.44;1039446;28;20377;-61
2021/03/03 01:00:27;;;;;;;;;;;;;;;-1.44;100.00;97089.53;1039168;28;20022;-62
2021/03/03 01:00:58;;;;;;;;;;;;;;;-1.43;100.00;97091.16;1035419;28;19913;-62
2021/03/03 01:01:28;;;;;;;;;;;;;;;-1.42;100.00;97087.59;1039341;28;19905;-61
2021/03/03 01:01:59;;;;;;;;;;;;;;;-1.43;100.00;97088.56;1038905;28;19916;-61
2021/03/03 01:02:29;;;;;;;;;;;;;;;-1.47;100.00;97085.50;1039414;28;19908;-61
2021/03/03 01:02:59;;;;;;;;;;;;;;;-1.48;100.00;97089.00;1039452;28;19905;-62
2021/03/03 01:03:30;;;;;;;;;;;;;;;-1.43;100.00;97093.72;1039823;28;19998;-62
2021/03/03 01:04:00;;;;;;;;;;;;;;;-1.37;100.00;97087.97;1043383;28;20286;-62
2021/03/03 01:04:30;;;;;;;;;;;;;;;-1.40;100.00;97088.28;1043606;28;19951;-62
2021/03/03 01:05:00;;;;;;;;;;;;;;;-1.41;100.00;97089.22;1043464;28;20405;-61
2021/03/03 01:05:31;;;;;;;;;;;;;;;-1.40;100.00;97087.47;1043228;28;19951;-61
2021/03/03 01:06:01;;;;;;;;;;;;;;;-1.43;100.00;97093.72;1043967;28;19924;-61
2021/03/03 01:06:31;;;;;;;;;;;;;;;-1.36;100.00;97083.63;1043682;28;19938;-61
2021/03/03 01:07:02;;;;;;;;;;;;;;;-1.38;100.00;97083.75;1039745;28;19917;-61
2021/03/03 01:07:32;;;;;;;;;;;;;;;-1.37;100.00;97087.97;1039291;28;19963;-62
2021/03/03 01:08:02;;;;;;;;;;;;;;;-1.27;100.00;97093.81;1035161;28;19909;-62
2021/03/03 01:08:33;;;;;;;;;;;;;;;-1.28;100.00;97093.94;1035419;28;20330;-62
2021/03/03 01:09:03;;;;;;;;;;;;;;;-1.28;100.00;97087.00;1035871;28;20004;-62
2021/03/03 01:09:33;;;;;;;;;;;;;;;-1.32;100.00;97090.06;1039921;28;19913;-61
2021/03/03 01:10:04;;;;;;;;;;;;;;;-1.29;100.00;97089.75;1039818;28;20428;-62
2021/03/03 01:10:34;;;;;;;;;;;;;;;-1.27;100.00;97093.81;1039867;28;19995;-62
2021/03/03 01:11:05;;;;;;;;;;;;;;;-1.29;100.00;97089.75;1039725;28;19908;-62
2021/03/03 01:11:35;;;;;;;;;;;;;;;-1.27;100.00;97091.22;1042604;28;19901;-62
2021/03/03 01:12:05;;;;;;;;;;;;;;;-1.25;100.00;97091.84;1043766;28;20469;-62
2021/03/03 01:12:36;;;;;;;;;;;;;;;-1.29;100.00;97084.59;1043868;28;19916;-61
2021/03/03 01:13:06;;;;;;;;;;;;;;;-1.27;100.00;97093.81;1043670;28;20519;-62
2021/03/03 01:13:36;;;;;;;;;;;;;;;-1.31;100.00;97087.34;1043373;28;19911;-61
2021/03/03 01:14:07;;;;;;;;;;;;;;;-1.32;100.00;97090.88;1039438;28;19909;-61
2021/03/03 01:14:37;;;;;;;;;;;;;;;-1.27;100.00;97088.66;1039143;28;20279;-61
2021/03/03 01:15:07;;;;;;;;;;;;;;;-1.25;100.00;97091.06;1039402;28;19971;-62
2021/03/03 01:15:38;;;;;;;;;;;;;;;-1.22;100.00;97090.75;1043375;28;19909;-61
2021/03/03 01:16:08;;;;;;;;;;;;;;;-1.13;100.00;97086.44;1039420;28;19908;-62
2021/03/03 01:16:39;;;;;;;;;;;;;;;-0.94;100.00;97086.16;1039199;28;19916;-62
2021/03/03 01:17:09;;;;;;;;;;;;;;;-0.76;100.00;97086.06;1034790;28;19910;-62
2021/03/03 01:17:39;;;;;;;;;;;;;;;-0.72;100.00;97088.16;1035082;28;19910;-62
2021/03/03 01:18:10;;;;;;;;;;;;;;;-0.69;100.00;97092.19;1040768;28;19932;-61
2021/03/03 01:18:40;;;;;;;;;;;;;;;-0.77;100.00;97089.59;1043718;28;19909;-62
2021/03/03 01:19:10;;;;;;;;;;;;;;;-0.69;100.00;97088.81;1043981;28;19916;-62
2021/03/03 01:19:41;;;;;;;;;;;;;;;-0.66;100.00;97091.09;1043053;28;19909;-62
2021/03/03 01:20:11;;;;;;;;;;;;;;;-0.61;100.00;97083.66;1039780;28;20500;-62
2021/03/03 01:20:42;;;;;;;;;;;;;;;-0.46;100.00;97076.94;1043821;28;20015;-62
2021/03/03 01:21:12;;;;;;;;;;;;;;;-0.48;100.00;97073.69;1043613;28;19912;-61
2021/03/03 01:21:42;;;;;;;;;;;;;;;-0.42;100.00;97083.38;1042893;28;19925;-62
2021/03/03 01:22:13;;;;;;;;;;;;;;;-0.32;100.00;97078.88;1043590;28;20456;-62
2021/03/03 01:22:43;;;;;;;;;;;;;;;-0.18;100.00;97079.19;1043599;28;19952;-62
2021/03/03 01:23:13;;;;;;;;;;;;;;;-0.21;100.00;97076.94;1042260;28;19916;-61
2021/03/03 01:23:44;;;;;;;;;;;;;;;-0.19;100.00;97080.19;1039227;28;19901;-62
2021/03/03 01:24:14;;;;;;;;;;;;;;;-0.20;100.00;97070.81;1039406;28;19912;-62
2021/03/03 01:24:44;;;;;;;;;;;;;;;-0.14;100.00;97077.91;1039387;28;20446;-62
2021/03/03 01:25:14;;;;;;;;;;;;;;;-0.10;100.00;97074.03;1043111;28;20421;-62
2021/03/03 01:25:45;;;;;;;;;;;;;;;-0.12;100.00;97068.25;1039607;28;19909;-62
2021/03/03 01:26:15;;;;;;;;;;;;;;;-0.07;100.00;97076.28;1039489;28;19991;-62
2021/03/03 01:26:45;;;;;;;;;;;;;;;-0.09;100.00;97078.25;1041938;28;19962;-62
2021/03/03 01:27:16;;;;;;;;;;;;;;;-0.05;100.00;97080.31;1042922;28;20420;-61
2021/03/03 01:27:46;;;;;;;;;;;;;;;-0.02;100.00;97079.19;1043477;28;19916;-62
2021/03/03 01:28:16;;;;;;;;;;;;;;;-0.09;100.00;97080.81;1042723;28;20350;-62
2021/03/03 01:28:47;;;;;;;;;;;;;;;0.05;100.00;97079.34;1039964;28;20363;-62
2021/03/03 01:29:17;;;;;;;;;;;;;;;0.17;100.00;97072.91;1043054;28;19905;-62
2021/03/03 01:29:47;;;;;;;;;;;;;;;0.08;100.00;97074.66;1043398;28;19905;-62
2021/03/03 01:30:18;;;;;;;;;;;;;;;0.04;100.00;97072.59;1038785;28;19903;-62
2021/03/03 01:30:48;;;;;;;;;;;;;;;0.04;100.00;97073.41;1035339;28;20414;-61
2021/03/03 01:31:18;;;;;;;;;;;;;;;0.05;100.00;97076.78;1035399;28;19963;-62
2021/03/03 01:31:49;;;;;;;;;;;;;;;0.16;100.00;97077.22;1036780;28;19929;-62
2021/03/03 01:32:19;;;;;;;;;;;;;;;0.13;100.00;97080.13;1043365;28;19982;-62
2021/03/03 01:32:49;;;;;;;;;;;;;;;0.07;100.00;97075.66;1043470;28;19915;-61
2021/03/03 01:33:26;;;;;;;;;;;;;;;0.15;100.00;97078.22;1038665;28;19909;-61
2021/03/03 01:33:56;;;;;;;;;;;;;;;0.14;100.00;97084.34;1035155;28;20361;-62
2021/03/03 01:34:26;;;;;;;;;;;;;;;0.16;100.00;97081.59;1036099;28;19906;-62
2021/03/03 01:34:57;;;;;;;;;;;;;;;0.26;100.00;97092.53;1039429;28;19901;-62
2021/03/03 01:35:30;;;;;;;;;;;;;;;0.33;100.00;97084.94;1043490;28;20039;-62
2021/03/03 01:36:00;;;;;;;;;;;;;;;0.25;100.00;97082.38;1043764;28;19901;-60
2021/03/03 01:36:30;;;;;;;;;;;;;;;0.22;100.00;97084.31;1043704;28;19909;-62
2021/03/03 01:37:00;;;;;;;;;;;;;;;0.14;100.00;97081.75;1043038;28;19920;-61
2021/03/03 01:37:31;;;;;;;;;;;;;;;0.13;100.00;97081.91;1043705;28;19911;-61
2021/03/03 01:38:01;;;;;;;;;;;;;;;0.08;100.00;97079.84;1043200;28;19932;-62
2021/03/03 01:38:31;;;;;;;;;;;;;;;0.11;100.00;97079.50;1043444;28;19905;-62
2021/03/03 01:39:02;;;;;;;;;;;;;;;0.08;100.00;97077.25;1043940;28;19916;-62
2021/03/03 01:39:32;;;;;;;;;;;;;;;0.08;100.00;97079.84;1043948;28;19916;-62
2021/03/03 01:40:03;;;;;;;;;;;;;;;0.05;100.00;97076.78;1043375;28;19909;-62
2021/03/03 01:40:33;;;;;;;;;;;;;;;0.06;100.00;97074.00;1038834;28;20012;-62
2021/03/03 01:41:04;;;;;;;;;;;;;;;0.12;100.00;97077.72;1039526;28;20290;-62
2021/03/03 01:41:34;;;;;;;;;;;;;;;0.22;100.00;97071.41;1039399;28;19945;-62
2021/03/03 01:42:04;;;;;;;;;;;;;;;0.19;100.00;97071.75;1042909;28;19943;-62
2021/03/03 01:42:35;;;;;;;;;;;;;;;0.36;100.00;97071.72;1043544;28;19916;-62
2021/03/03 01:43:05;;;;;;;;;;;;;;;0.34;100.00;97069.31;1039445;28;19917;-62
2021/03/03 01:43:35;;;;;;;;;;;;;;;0.43;100.00;97062.31;1039047;28;20021;-62
2021/03/03 01:44:06;;;;;;;;;;;;;;;0.41;100.00;97065.09;1039364;28;20361;-62
2021/03/03 01:44:36;;;;;;;;;;;;;;;0.37;100.00;97068.16;1039229;28;19913;-62
2021/03/03 01:45:07;;;;;;;;;;;;;;;0.35;100.00;97067.53;1039383;28;19923;-62
2021/03/03 01:45:37;;;;;;;;;;;;;;;0.33;100.00;97062.50;1035318;28;19913;-62
2021/03/03 01:46:07;;;;;;;;;;;;;;;0.38;100.00;97069.78;1039697;28;19921;-62
2021/03/03 01:46:37;;;;;;;;;;;;;;;0.37;100.00;97065.56;1043330;28;19912;-61
2021/03/03 01:47:08;;;;;;;;;;;;;;;0.44;100.00;97074.28;1040610;28;19920;-62
2021/03/03 01:47:39;;;;;;;;;;;;;;;0.46;100.00;97065.38;1039556;28;19913;-62
2021/03/03 01:48:09;;;;;;;;;;;;;;;0.49;100.00;97068.63;1039650;28;19917;-61
2021/03/03 01:48:39;;;;;;;;;;;;;;;0.59;100.00;97069.22;1042826;28;19963;-61
2021/03/03 01:49:10;;;;;;;;;;;;;;;0.62;100.00;97072.28;1043506;28;19924;-62
2021/03/03 01:49:40;;;;;;;;;;;;;;;0.61;100.00;97065.53;1043558;28;20444;-62
2021/03/03 01:50:10;;;;;;;;;;;;;;;0.57;100.00;97068.56;1042825;28;19916;-61
2021/03/03 01:50:41;;;;;;;;;;;;;;;0.58;100.00;97073.59;1043365;28;20015;-62
2021/03/03 01:51:11;;;;;;;;;;;;;;;0.58;100.00;97073.59;1039336;28;20259;-62
2021/03/03 01:51:41;;;;;;;;;;;;;;;0.61;100.00;97068.09;1035235;28;20437;-61
2021/03/03 01:52:12;;;;;;;;;;;;;;;0.63;100.00;97073.09;1034860;28;19916;-62
2021/03/03 01:52:42;;;;;;;;;;;;;;;0.73;100.00;97070.31;1031176;28;19910;-62
2021/03/03 01:53:13;;;;;;;;;;;;;;;0.72;100.00;97073.88;1035225;28;19913;-61
2021/03/03 01:53:43;;;;;;;;;;;;;;;0.74;100.00;97074.50;1032731;28;20390;-61
2021/03/03 01:54:13;;;;;;;;;;;;;;;0.75;100.00;97071.75;1039251;28;19917;-61
2021/03/03 01:54:44;;;;;;;;;;;;;;;0.74;100.00;97069.31;1043537;28;19990;-62
2021/03/03 01:55:14;;;;;;;;;;;;;;;0.75;100.00;97068.38;1043018;28;19913;-61
2021/03/03 01:55:44;;;;;;;;;;;;;;;0.75;100.00;97070.97;1043758;28;20279;-62
2021/03/03 01:56:15;;;;;;;;;;;;;;;0.78;100.00;97061.09;1043515;28;20011;-62
2021/03/03 01:56:45;;;;;;;;;;;;;;;0.89;100.00;97070.25;1043497;28;19917;-61
2021/03/03 01:57:15;;;;;;;;;;;;;;;0.91;100.00;97066.53;1036904;28;20416;-61
2021/03/03 01:57:46;;;;;;;;;;;;;;;0.92;100.00;97072.50;1031318;28;19949;-62
2021/03/03 01:58:16;;;;;;;;;;;;;;;0.88;100.00;97066.88;1035257;28;19914;-62
2021/03/03 01:58:46;;;;;;;;;;;;;;;0.93;100.00;97071.50;1034938;28;19924;-62
2021/03/03 01:59:16;;;;;;;;;;;;;;;0.96;100.00;97068.59;1043167;28;19969;-62
2021/03/03 01:59:47;;;;;;;;;;;;;;;0.95;100.00;97072.16;1043500;28;19913;-61
2021/03/03 02:00:17;;;;;;;;;;;;;;;0.90;100.00;97072.66;1039267;28;20374;-62
2021/03/03 02:00:48;;;;;;;;;;;;;;;0.87;100.00;97077.34;1041548;28;19917;-61
2021/03/03 02:01:18;;;;;;;;;;;;;;;0.87;100.00;97075.59;1039192;28;19916;-61
2021/03/03 02:01:48;;;;;;;;;;;;;;;0.85;100.00;97074.16;1037774;28;19999;-61
2021/03/03 02:02:23;;;;;;;;;;;;;;;0.83;100.00;97073.50;1038497;28;19909;-61
2021/03/03 02:02:53;;;;;;;;;;;;;;;0.87;100.00;97067.00;1040984;28;20243;-62
2021/03/03 02:03:24;;;;;;;;;;;;;;;0.89;100.00;97078.00;1044421;28;19912;-61
2021/03/03 02:03:54;;;;;;;;;;;;;;;0.90;100.00;97071.84;1040686;28;19967;-61
2021/03/03 02:04:24;;;;;;;;;;;;;;;1.01;100.00;97078.44;1040431;28;19920;-62
2021/03/03 02:04:55;;;;;;;;;;;;;;;0.94;100.00;97078.31;1039809;28;19956;-62
2021/03/03 02:05:26;;;;;;;;;;;;;;;0.88;100.00;97081.56;1034813;28;19913;-61
2021/03/03 02:05:58;;;;;;;;;;;;;;;0.88;100.00;97076.41;1034062;28;19913;-62
2021/03/03 02:06:47;;;;;;;;;;;;;;;0.91;100.00;97076.88;1039354;28;19917;-62
2021/03/03 02:07:37;;;;;;;;;;;;;;;0.92;100.00;97070.72;1041136;28;20491;-61
2021/03/03 02:08:12;;;;;;;;;;;;;;;0.62;100.00;97043.88;1036220;28;19964;-63
2021/03/03 02:08:50;;;;;;;;;;;;;;;0.78;100.00;97075.78;1032606;28;19961;-61
2021/03/03 02:09:23;;;;;;;;;;;;;;;0.77;100.00;97081.91;1038962;28;20384;-60
2021/03/03 02:10:13;;;;;;;;;;;;;;;0.75;100.00;97071.75;1041433;28;19923;-62
2021/03/03 02:10:47;;;;;;;;;;;;;;;0.77;100.00;97079.31;1039101;28;20067;-61
2021/03/03 02:11:23;;;;;;;;;;;;;;;0.78;100.00;97074.00;1042556;28;20290;-61
2021/03/03 02:12:04;;;;;;;;;;;;;;;0.81;100.00;97075.47;1038692;28;19913;-62
2021/03/03 02:12:36;;;;;;;;;;;;;;;0.79;100.00;97072.22;1041738;28;19962;-62
2021/03/03 02:13:20;;;;;;;;;;;;;;;0.81;100.00;97078.03;1035681;28;19924;-62
2021/03/03 02:13:51;;;;;;;;;;;;;;;0.80;100.00;97079.00;1034259;28;20689;-62
2021/03/03 02:14:22;;;;;;;;;;;;;;;0.80;100.00;97079.00;1033887;28;19906;-61
2021/03/03 02:14:53;;;;;;;;;;;;;;;0.77;100.00;97075.00;1034157;28;19917;-62
2021/03/03 02:15:23;;;;;;;;;;;;;;;0.75;100.00;97070.97;1036316;28;19913;-62
2021/03/03 02:15:53;;;;;;;;;;;;;;;0.73;100.00;97072.91;1035801;28;19913;-62
2021/03/03 02:16:24;;;;;;;;;;;;;;;0.71;100.00;97070.50;1035263;28;19952;-62
2021/03/03 02:16:54;;;;;;;;;;;;;;;0.75;100.00;97070.97;1035561;28;20305;-62
2021/03/03 02:17:25;;;;;;;;;;;;;;;0.75;100.00;97070.97;1038861;28;19909;-61
2021/03/03 02:17:55;;;;;;;;;;;;;;;0.78;100.00;97066.25;1035356;28;19920;-61
2021/03/03 02:18:26;;;;;;;;;;;;;;;0.78;100.00;97070.63;1035521;28;19913;-61
2021/03/03 02:18:57;;;;;;;;;;;;;;;0.74;100.00;97071.91;1039674;28;19936;-61
2021/03/03 02:19:29;;;;;;;;;;;;;;;0.73;100.00;97068.53;1039938;28;19913;-62
2021/03/03 02:20:01;;;;;;;;;;;;;;;0.74;100.00;97077.06;1040960;28;19974;-61
2021/03/03 02:20:35;;;;;;;;;;;;;;;0.70;100.00;97074.84;1039368;28;19912;-62
2021/03/03 02:21:09;;;;;;;;;;;;;;;0.75;100.00;97079.50;1036231;28;20402;-61
2021/03/03 02:21:39;;;;;;;;;;;;;;;0.73;100.00;97080.63;1032309;28;19914;-59
2021/03/03 02:22:15;;;;;;;;;;;;;;;0.70;100.00;97079.19;1028161;28;19982;-62
2021/03/03 02:23:04;;;;;;;;;;;;;;;0.73;100.00;97078.06;1028718;28;20336;-62
2021/03/03 02:23:35;;;;;;;;;;;;;;;0.83;99.86;97081.25;1034398;28;20334;-61
2021/03/03 02:24:06;;;;;;;;;;;;;;;0.83;99.58;97081.25;1038113;28;20329;-61
2021/03/03 02:25:00;;;;;;;;;;;;;;;0.73;100.00;97073.69;1041764;28;19920;-61
2021/03/03 02:25:33;;;;;;;;;;;;;;;0.67;100.00;97070.03;1043218;28;19935;-61
2021/03/03 02:26:04;;;;;;;;;;;;;;;0.64;100.00;97066.97;1039203;28;19994;-61
2021/03/03 02:26:34;;;;;;;;;;;;;;;0.63;100.00;97067.91;1038884;28;20007;-60
2021/03/03 02:27:04;;;;;;;;;;;;;;;0.62;100.00;97061.16;1038771;28;19917;-61
2021/03/03 02:27:35;;;;;;;;;;;;;;;0.63;100.00;97067.91;1039090;28;20380;-62
2021/03/03 02:28:08;;;;;;;;;;;;;;;0.60;100.00;97066.47;1039520;28;19920;-61
2021/03/03 02:28:39;;;;;;;;;;;;;;;0.54;100.00;97064.56;1038576;28;19909;-62
2021/03/03 02:29:09;;;;;;;;;;;;;;;0.49;100.00;97066.84;1034766;28;19944;-62
2021/03/03 02:29:40;;;;;;;;;;;;;;;0.49;100.00;97061.66;1030733;28;20376;-61
2021/03/03 02:30:10;;;;;;;;;;;;;;;0.49;100.00;97064.25;1030610;28;19918;-62
2021/03/03 02:30:41;;;;;;;;;;;;;;;0.28;100.00;97038.19;1030831;28;19936;-61
2021/03/03 02:31:12;;;;;;;;;;;;;;;0.42;100.00;97065.91;1039236;28;20007;-61
2021/03/03 02:31:43;;;;;;;;;;;;;;;0.40;100.00;97070.41;1041827;28;19908;-61
2021/03/03 02:32:13;;;;;;;;;;;;;;;0.37;100.00;97066.41;1035244;28;20386;-61
2021/03/03 02:32:44;;;;;;;;;;;;;;;0.37;100.00;97068.16;1038673;28;19944;-61
2021/03/03 02:33:16;;;;;;;;;;;;;;;0.33;100.00;97065.09;1030649;28;19909;-62
2021/03/03 02:33:46;;;;;;;;;;;;;;;0.34;100.00;97060.75;1031096;28;19980;-61
2021/03/03 02:34:17;;;;;;;;;;;;;;;0.32;100.00;97063.50;1031751;28;20427;-62
2021/03/03 02:34:47;;;;;;;;;;;;;;;0.31;100.00;97061.09;1032241;28;19913;-62
2021/03/03 02:35:17;;;;;;;;;;;;;;;0.31;100.00;97058.50;1042213;28;19908;-61
2021/03/03 02:35:48;;;;;;;;;;;;;;;0.34;100.00;97060.75;1044123;28;20410;-62
2021/03/03 02:36:18;;;;;;;;;;;;;;;0.31;100.00;97066.25;1043795;28;19916;-62
2021/03/03 02:36:48;;;;;;;;;;;;;;;0.29;100.00;97060.44;1043744;28;19912;-62
2021/03/03 02:37:19;;;;;;;;;;;;;;;0.31;100.00;97066.25;1042795;28;19912;-61
2021/03/03 02:37:49;;;;;;;;;;;;;;;0.32;100.00;97066.06;1040003;28;19956;-61
2021/03/03 02:38:19;;;;;;;;;;;;;;;0.29;100.00;97063.03;1035571;28;20001;-61
2021/03/03 02:38:49;;;;;;;;;;;;;;;0.26;100.00;97060.75;1043631;28;20655;-62
2021/03/03 02:39:21;;;;;;;;;;;;;;;0.21;100.00;97064.66;1042105;28;20382;-61
2021/03/03 02:39:51;;;;;;;;;;;;;;;0.16;100.00;97063.53;1031527;28;19917;-62